sensor_id;sensor_type;location;lat;lon;timestamp;temperature;humidity
43671;DHT22;29267;50.906;7.248;2022-10-16T00:01:47;13.00;99.90
43671;DHT22;29267;50.906;7.248;2022-10-16T00:04:13;13.00;99.90
43671;DHT22;29267;50.906;7.248;2022-10-16T00:06:39;12.90;99.90
43671;DHT22;29267;50.906;7.248;2022-10-16T00:09:04;12.90;99.90
43671;DHT22;29267;50.906;7.248;2022-10-16T00:11:32;12.90;99.90
43671;DHT22;29267;50.906;7.248;2022-10-16T00:14:00;12.90;99.90
43671;DHT22;29267;50.906;7.248;2022-10-16T00:16:26;12.90;99.90
43671;DHT22;29267;50.906;7.248;2022-10-16T00:18:53;12.90;99.90
43671;DHT22;29267;50.906;7.248;2022-10-16T00:21:21;12.90;99.90
43671;DHT22;29267;50.906;7.248;2022-10-16T00:23:46;13.00;99.90
43671;DHT22;29267;50.906;7.248;2022-10-16T00:26:16;13.00;99.90
43671;DHT22;29267;50.906;7.248;2022-10-16T00:28:42;13.00;99.90
43671;DHT22;29267;50.906;7.248;2022-10-16T00:31:11;13.00;99.90
43671;DHT22;29267;50.906;7.248;2022-10-16T00:33:39;12.90;99.90
43671;DHT22;29267;50.906;7.248;2022-10-16T00:36:06;12.90;99.90
43671;DHT22;29267;50.906;7.248;2022-10-16T00:38:32;12.90;99.90
43671;DHT22;29267;50.906;7.248;2022-10-16T00:40:58;12.90;99.90
43671;DHT22;29267;50.906;7.248;2022-10-16T00:46:02;12.80;99.90
43671;DHT22;29267;50.906;7.248;2022-10-16T00:48:28;12.80;99.90
43671;DHT22;29267;50.906;7.248;2022-10-16T00:50:56;12.80;99.90
43671;DHT22;29267;50.906;7.248;2022-10-16T00:53:23;12.70;99.90
43671;DHT22;29267;50.906;7.248;2022-10-16T00:55:50;12.70;99.90
43671;DHT22;29267;50.906;7.248;2022-10-16T00:58:15;12.70;99.90
43671;DHT22;29267;50.906;7.248;2022-10-16T01:00:41;12.60;99.90
43671;DHT22;29267;50.906;7.248;2022-10-16T01:03:27;12.60;99.90
43671;DHT22;29267;50.906;7.248;2022-10-16T01:11:25;12.50;99.90
43671;DHT22;29267;50.906;7.248;2022-10-16T01:13:59;12.50;99.90
43671;DHT22;29267;50.906;7.248;2022-10-16T01:16:45;12.40;99.90
43671;DHT22;29267;50.906;7.248;2022-10-16T01:19:25;12.50;99.90
43671;DHT22;29267;50.906;7.248;2022-10-16T01:21:53;12.40;99.90
43671;DHT22;29267;50.906;7.248;2022-10-16T01:29:52;12.40;99.90
43671;DHT22;29267;50.906;7.248;2022-10-16T01:32:30;12.40;99.90
43671;DHT22;29267;50.906;7.248;2022-10-16T01:37:53;12.30;99.90
43671;DHT22;29267;50.906;7.248;2022-10-16T01:40:22;12.20;99.90
43671;DHT22;29267;50.906;7.248;2022-10-16T01:43:01;12.20;99.90
43671;DHT22;29267;50.906;7.248;2022-10-16T01:45:30;12.20;99.90
43671;DHT22;29267;50.906;7.248;2022-10-16T01:47:57;12.10;99.90
43671;DHT22;29267;50.906;7.248;2022-10-16T01:50:24;12.10;99.90
43671;DHT22;29267;50.906;7.248;2022-10-16T01:52:54;12.10;99.90
43671;DHT22;29267;50.906;7.248;2022-10-16T01:55:32;12.10;99.90
43671;DHT22;29267;50.906;7.248;2022-10-16T01:57:59;11.90;99.90
43671;DHT22;29267;50.906;7.248;2022-10-16T02:00:27;12.00;99.90
43671;DHT22;29267;50.906;7.248;2022-10-16T02:02:53;11.90;99.90
43671;DHT22;29267;50.906;7.248;2022-10-16T02:05:25;11.80;99.90
43671;DHT22;29267;50.906;7.248;2022-10-16T02:07:52;11.80;99.90
43671;DHT22;29267;50.906;7.248;2022-10-16T02:10:18;11.80;99.90
43671;DHT22;29267;50.906;7.248;2022-10-16T02:13:11;11.70;99.90
43671;DHT22;29267;50.906;7.248;2022-10-16T02:15:38;11.60;99.90
43671;DHT22;29267;50.906;7.248;2022-10-16T02:18:07;11.70;99.90
43671;DHT22;29267;50.906;7.248;2022-10-16T02:20:40;11.70;99.90
43671;DHT22;29267;50.906;7.248;2022-10-16T02:23:12;11.60;99.90
43671;DHT22;29267;50.906;7.248;2022-10-16T02:25:45;11.60;99.90
43671;DHT22;29267;50.906;7.248;2022-10-16T02:28:17;11.70;99.90
43671;DHT22;29267;50.906;7.248;2022-10-16T02:30:51;11.70;99.90
43671;DHT22;29267;50.906;7.248;2022-10-16T02:33:19;11.80;99.90
43671;DHT22;29267;50.906;7.248;2022-10-16T02:35:47;11.80;99.90
43671;DHT22;29267;50.906;7.248;2022-10-16T02:38:15;11.90;99.90
43671;DHT22;29267;50.906;7.248;2022-10-16T02:40:42;11.90;99.90
43671;DHT22;29267;50.906;7.248;2022-10-16T02:43:08;12.00;99.90
43671;DHT22;29267;50.906;7.248;2022-10-16T02:45:34;12.00;99.90
43671;DHT22;29267;50.906;7.248;2022-10-16T02:48:00;12.10;99.90
43671;DHT22;29267;50.906;7.248;2022-10-16T02:50:26;12.10;99.90
43671;DHT22;29267;50.906;7.248;2022-10-16T02:52:52;12.20;99.90
43671;DHT22;29267;50.906;7.248;2022-10-16T02:55:17;12.20;99.90
43671;DHT22;29267;50.906;7.248;2022-10-16T02:57:43;12.20;99.90
43671;DHT22;29267;50.906;7.248;2022-10-16T03:00:13;12.30;99.90
43671;DHT22;29267;50.906;7.248;2022-10-16T03:02:39;12.30;99.90
43671;DHT22;29267;50.906;7.248;2022-10-16T03:05:05;12.30;99.90
43671;DHT22;29267;50.906;7.248;2022-10-16T03:07:31;12.40;99.90
43671;DHT22;29267;50.906;7.248;2022-10-16T03:09:57;12.40;99.90
43671;DHT22;29267;50.906;7.248;2022-10-16T03:12:26;12.40;99.90
43671;DHT22;29267;50.906;7.248;2022-10-16T03:14:51;12.40;99.90
43671;DHT22;29267;50.906;7.248;2022-10-16T03:17:17;12.40;99.90
43671;DHT22;29267;50.906;7.248;2022-10-16T03:19:43;12.40;99.90
43671;DHT22;29267;50.906;7.248;2022-10-16T03:22:08;12.50;99.90
43671;DHT22;29267;50.906;7.248;2022-10-16T03:24:34;12.40;99.90
43671;DHT22;29267;50.906;7.248;2022-10-16T03:26:59;12.40;99.90
43671;DHT22;29267;50.906;7.248;2022-10-16T03:29:25;12.30;99.90
43671;DHT22;29267;50.906;7.248;2022-10-16T03:31:51;12.30;99.90
43671;DHT22;29267;50.906;7.248;2022-10-16T03:34:17;12.30;99.90
43671;DHT22;29267;50.906;7.248;2022-10-16T03:36:42;12.30;99.90
43671;DHT22;29267;50.906;7.248;2022-10-16T03:39:08;12.20;99.90
43671;DHT22;29267;50.906;7.248;2022-10-16T03:41:34;12.30;99.90
43671;DHT22;29267;50.906;7.248;2022-10-16T03:43:59;12.20;99.90
43671;DHT22;29267;50.906;7.248;2022-10-16T03:46:25;12.30;99.90
43671;DHT22;29267;50.906;7.248;2022-10-16T03:48:50;12.30;99.90
43671;DHT22;29267;50.906;7.248;2022-10-16T03:51:16;12.30;99.90
43671;DHT22;29267;50.906;7.248;2022-10-16T03:53:41;12.30;99.90
43671;DHT22;29267;50.906;7.248;2022-10-16T03:56:07;12.30;99.90
43671;DHT22;29267;50.906;7.248;2022-10-16T03:58:33;12.30;99.90
43671;DHT22;29267;50.906;7.248;2022-10-16T04:00:58;12.30;99.90
43671;DHT22;29267;50.906;7.248;2022-10-16T04:03:24;12.30;99.90
43671;DHT22;29267;50.906;7.248;2022-10-16T04:05:49;12.30;99.90
43671;DHT22;29267;50.906;7.248;2022-10-16T04:08:15;12.20;99.90
43671;DHT22;29267;50.906;7.248;2022-10-16T04:10:44;12.20;99.90
43671;DHT22;29267;50.906;7.248;2022-10-16T04:13:10;12.20;99.90
43671;DHT22;29267;50.906;7.248;2022-10-16T04:15:36;12.30;99.90
43671;DHT22;29267;50.906;7.248;2022-10-16T04:18:02;12.30;99.90
43671;DHT22;29267;50.906;7.248;2022-10-16T04:20:27;12.30;99.90
43671;DHT22;29267;50.906;7.248;2022-10-16T04:22:53;12.40;99.90
43671;DHT22;29267;50.906;7.248;2022-10-16T04:25:18;12.40;99.90
43671;DHT22;29267;50.906;7.248;2022-10-16T04:27:44;12.40;99.90
43671;DHT22;29267;50.906;7.248;2022-10-16T04:30:10;12.50;99.90
43671;DHT22;29267;50.906;7.248;2022-10-16T04:32:35;12.50;99.90
43671;DHT22;29267;50.906;7.248;2022-10-16T04:35:01;12.50;99.90
43671;DHT22;29267;50.906;7.248;2022-10-16T04:37:28;12.50;99.90
43671;DHT22;29267;50.906;7.248;2022-10-16T04:39:54;12.50;99.90
43671;DHT22;29267;50.906;7.248;2022-10-16T04:42:20;12.50;99.90
43671;DHT22;29267;50.906;7.248;2022-10-16T04:44:45;12.50;99.90
43671;DHT22;29267;50.906;7.248;2022-10-16T04:47:12;12.50;99.90
43671;DHT22;29267;50.906;7.248;2022-10-16T04:49:38;12.50;99.90
43671;DHT22;29267;50.906;7.248;2022-10-16T04:52:04;12.50;99.90
43671;DHT22;29267;50.906;7.248;2022-10-16T04:54:29;12.50;99.90
43671;DHT22;29267;50.906;7.248;2022-10-16T04:56:55;12.50;99.90
43671;DHT22;29267;50.906;7.248;2022-10-16T04:59:21;12.60;99.90
43671;DHT22;29267;50.906;7.248;2022-10-16T05:01:47;12.60;99.90
43671;DHT22;29267;50.906;7.248;2022-10-16T05:04:13;12.50;99.90
43671;DHT22;29267;50.906;7.248;2022-10-16T05:06:40;12.50;99.90
43671;DHT22;29267;50.906;7.248;2022-10-16T05:09:06;12.50;99.90
43671;DHT22;29267;50.906;7.248;2022-10-16T05:11:32;12.50;99.90
43671;DHT22;29267;50.906;7.248;2022-10-16T05:13:58;12.50;99.90
43671;DHT22;29267;50.906;7.248;2022-10-16T05:16:24;12.40;99.90
43671;DHT22;29267;50.906;7.248;2022-10-16T05:18:51;12.40;99.90
43671;DHT22;29267;50.906;7.248;2022-10-16T05:21:17;12.40;99.90
43671;DHT22;29267;50.906;7.248;2022-10-16T05:23:43;12.40;99.90
43671;DHT22;29267;50.906;7.248;2022-10-16T05:26:08;12.40;99.90
43671;DHT22;29267;50.906;7.248;2022-10-16T05:28:34;12.40;99.90
43671;DHT22;29267;50.906;7.248;2022-10-16T05:31:06;12.40;99.90
43671;DHT22;29267;50.906;7.248;2022-10-16T05:33:32;12.50;99.90
43671;DHT22;29267;50.906;7.248;2022-10-16T05:36:07;12.50;99.90
43671;DHT22;29267;50.906;7.248;2022-10-16T05:38:36;12.50;99.90
43671;DHT22;29267;50.906;7.248;2022-10-16T05:41:03;12.50;99.90
43671;DHT22;29267;50.906;7.248;2022-10-16T05:43:29;12.50;99.90
43671;DHT22;29267;50.906;7.248;2022-10-16T05:46:00;12.40;99.90
43671;DHT22;29267;50.906;7.248;2022-10-16T05:48:26;12.40;99.90
43671;DHT22;29267;50.906;7.248;2022-10-16T05:51:03;12.40;99.90
43671;DHT22;29267;50.906;7.248;2022-10-16T05:53:31;12.40;99.90
43671;DHT22;29267;50.906;7.248;2022-10-16T05:55:58;12.40;99.90
43671;DHT22;29267;50.906;7.248;2022-10-16T05:58:29;12.40;99.90
43671;DHT22;29267;50.906;7.248;2022-10-16T06:00:56;12.40;99.90
43671;DHT22;29267;50.906;7.248;2022-10-16T06:03:22;12.30;99.90
43671;DHT22;29267;50.906;7.248;2022-10-16T06:05:48;12.30;99.90
43671;DHT22;29267;50.906;7.248;2022-10-16T06:08:13;12.30;99.90
43671;DHT22;29267;50.906;7.248;2022-10-16T06:10:39;12.30;99.90
43671;DHT22;29267;50.906;7.248;2022-10-16T06:13:05;12.30;99.90
43671;DHT22;29267;50.906;7.248;2022-10-16T06:15:30;12.30;99.90
43671;DHT22;29267;50.906;7.248;2022-10-16T06:17:56;12.20;99.90
43671;DHT22;29267;50.906;7.248;2022-10-16T06:20:21;12.20;99.90
43671;DHT22;29267;50.906;7.248;2022-10-16T06:22:47;12.20;99.90
43671;DHT22;29267;50.906;7.248;2022-10-16T06:25:12;12.20;99.90
43671;DHT22;29267;50.906;7.248;2022-10-16T06:27:41;12.20;99.90
43671;DHT22;29267;50.906;7.248;2022-10-16T06:30:07;12.20;99.90
43671;DHT22;29267;50.906;7.248;2022-10-16T06:32:33;12.20;99.90
43671;DHT22;29267;50.906;7.248;2022-10-16T06:34:58;12.30;99.90
43671;DHT22;29267;50.906;7.248;2022-10-16T06:37:24;12.30;99.90
43671;DHT22;29267;50.906;7.248;2022-10-16T06:39:50;12.30;99.90
43671;DHT22;29267;50.906;7.248;2022-10-16T06:42:18;12.20;99.90
43671;DHT22;29267;50.906;7.248;2022-10-16T06:44:43;12.30;99.90
43671;DHT22;29267;50.906;7.248;2022-10-16T06:47:09;12.30;99.90
43671;DHT22;29267;50.906;7.248;2022-10-16T06:49:34;12.40;99.90
43671;DHT22;29267;50.906;7.248;2022-10-16T06:52:00;12.60;99.90
43671;DHT22;29267;50.906;7.248;2022-10-16T06:54:27;12.70;99.90
43671;DHT22;29267;50.906;7.248;2022-10-16T06:56:52;12.80;99.90
43671;DHT22;29267;50.906;7.248;2022-10-16T06:59:22;12.90;99.90
43671;DHT22;29267;50.906;7.248;2022-10-16T07:01:48;13.10;99.90
43671;DHT22;29267;50.906;7.248;2022-10-16T07:04:13;13.30;99.90
43671;DHT22;29267;50.906;7.248;2022-10-16T07:06:39;13.40;99.90
43671;DHT22;29267;50.906;7.248;2022-10-16T07:09:09;13.60;99.90
43671;DHT22;29267;50.906;7.248;2022-10-16T07:11:37;13.70;99.90
43671;DHT22;29267;50.906;7.248;2022-10-16T07:14:03;13.80;99.90
43671;DHT22;29267;50.906;7.248;2022-10-16T07:16:31;14.00;99.90
43671;DHT22;29267;50.906;7.248;2022-10-16T07:19:02;14.10;99.90
43671;DHT22;29267;50.906;7.248;2022-10-16T07:21:30;14.10;99.90
43671;DHT22;29267;50.906;7.248;2022-10-16T07:23:58;14.20;99.90
43671;DHT22;29267;50.906;7.248;2022-10-16T07:26:26;14.20;99.90
43671;DHT22;29267;50.906;7.248;2022-10-16T07:28:51;14.30;99.90
43671;DHT22;29267;50.906;7.248;2022-10-16T07:31:19;14.40;99.90
43671;DHT22;29267;50.906;7.248;2022-10-16T07:33:46;14.50;99.90
43671;DHT22;29267;50.906;7.248;2022-10-16T07:36:14;14.50;99.90
43671;DHT22;29267;50.906;7.248;2022-10-16T07:38:40;14.60;99.90
43671;DHT22;29267;50.906;7.248;2022-10-16T07:41:07;14.60;99.90
43671;DHT22;29267;50.906;7.248;2022-10-16T07:43:34;14.60;99.90
43671;DHT22;29267;50.906;7.248;2022-10-16T07:46:00;14.70;99.90
43671;DHT22;29267;50.906;7.248;2022-10-16T07:48:31;14.60;99.90
43671;DHT22;29267;50.906;7.248;2022-10-16T07:51:02;14.70;99.90
43671;DHT22;29267;50.906;7.248;2022-10-16T07:53:28;14.90;99.90
43671;DHT22;29267;50.906;7.248;2022-10-16T07:55:58;14.90;99.90
43671;DHT22;29267;50.906;7.248;2022-10-16T07:58:24;14.90;99.90
43671;DHT22;29267;50.906;7.248;2022-10-16T08:00:49;14.90;99.90
43671;DHT22;29267;50.906;7.248;2022-10-16T08:03:15;14.90;99.90
43671;DHT22;29267;50.906;7.248;2022-10-16T08:05:40;14.70;99.90
43671;DHT22;29267;50.906;7.248;2022-10-16T08:08:06;14.60;99.90
43671;DHT22;29267;50.906;7.248;2022-10-16T08:10:31;14.50;99.90
43671;DHT22;29267;50.906;7.248;2022-10-16T08:12:57;14.40;99.90
43671;DHT22;29267;50.906;7.248;2022-10-16T08:15:24;14.30;99.90
43671;DHT22;29267;50.906;7.248;2022-10-16T08:17:57;14.30;99.90
43671;DHT22;29267;50.906;7.248;2022-10-16T08:20:23;14.20;99.90
43671;DHT22;29267;50.906;7.248;2022-10-16T08:22:48;14.10;99.90
43671;DHT22;29267;50.906;7.248;2022-10-16T08:25:14;14.00;99.90
43671;DHT22;29267;50.906;7.248;2022-10-16T08:27:40;14.10;99.90
43671;DHT22;29267;50.906;7.248;2022-10-16T08:30:06;14.10;99.90
43671;DHT22;29267;50.906;7.248;2022-10-16T08:32:32;14.10;99.90
43671;DHT22;29267;50.906;7.248;2022-10-16T08:34:57;14.20;99.90
43671;DHT22;29267;50.906;7.248;2022-10-16T08:37:23;14.30;99.90
43671;DHT22;29267;50.906;7.248;2022-10-16T08:39:48;14.40;99.90
43671;DHT22;29267;50.906;7.248;2022-10-16T08:47:26;14.70;99.90
43671;DHT22;29267;50.906;7.248;2022-10-16T08:50:09;14.90;99.90
43671;DHT22;29267;50.906;7.248;2022-10-16T08:52:39;15.10;99.90
43671;DHT22;29267;50.906;7.248;2022-10-16T08:55:06;15.30;99.90
43671;DHT22;29267;50.906;7.248;2022-10-16T08:57:32;15.40;99.90
43671;DHT22;29267;50.906;7.248;2022-10-16T09:00:11;15.60;99.90
43671;DHT22;29267;50.906;7.248;2022-10-16T09:08:26;16.60;99.90
43671;DHT22;29267;50.906;7.248;2022-10-16T09:16:30;17.70;99.90
43671;DHT22;29267;50.906;7.248;2022-10-16T09:19:26;17.80;99.90
43671;DHT22;29267;50.906;7.248;2022-10-16T09:21:54;17.90;99.90
43671;DHT22;29267;50.906;7.248;2022-10-16T09:24:23;18.00;99.90
43671;DHT22;29267;50.906;7.248;2022-10-16T09:26:49;18.20;99.90
43671;DHT22;29267;50.906;7.248;2022-10-16T09:29:20;18.50;99.90
43671;DHT22;29267;50.906;7.248;2022-10-16T09:31:47;18.80;99.90
43671;DHT22;29267;50.906;7.248;2022-10-16T09:34:32;18.80;99.90
43671;DHT22;29267;50.906;7.248;2022-10-16T09:37:00;18.60;99.90
43671;DHT22;29267;50.906;7.248;2022-10-16T09:39:28;18.50;99.90
43671;DHT22;29267;50.906;7.248;2022-10-16T09:41:55;18.70;99.90
43671;DHT22;29267;50.906;7.248;2022-10-16T09:44:31;18.90;99.90
43671;DHT22;29267;50.906;7.248;2022-10-16T09:47:31;18.90;99.90
43671;DHT22;29267;50.906;7.248;2022-10-16T09:50:03;18.40;99.90
43671;DHT22;29267;50.906;7.248;2022-10-16T09:52:32;18.30;99.90
43671;DHT22;29267;50.906;7.248;2022-10-16T09:55:00;18.10;99.90
43671;DHT22;29267;50.906;7.248;2022-10-16T09:57:26;18.00;99.90
43671;DHT22;29267;50.906;7.248;2022-10-16T09:59:54;18.10;99.90
43671;DHT22;29267;50.906;7.248;2022-10-16T10:02:30;18.20;99.90
43671;DHT22;29267;50.906;7.248;2022-10-16T10:04:56;18.30;99.90
43671;DHT22;29267;50.906;7.248;2022-10-16T10:07:28;18.40;99.90
43671;DHT22;29267;50.906;7.248;2022-10-16T10:09:56;18.30;99.90
43671;DHT22;29267;50.906;7.248;2022-10-16T10:12:25;18.30;99.90
43671;DHT22;29267;50.906;7.248;2022-10-16T10:14:52;18.20;99.90
43671;DHT22;29267;50.906;7.248;2022-10-16T10:17:23;18.20;99.90
43671;DHT22;29267;50.906;7.248;2022-10-16T10:31:19;18.70;99.90
43671;DHT22;29267;50.906;7.248;2022-10-16T10:39:19;18.50;99.90
43671;DHT22;29267;50.906;7.248;2022-10-16T10:47:59;18.60;99.90
43671;DHT22;29267;50.906;7.248;2022-10-16T10:50:38;18.70;99.90
43671;DHT22;29267;50.906;7.248;2022-10-16T10:53:22;19.00;99.90
43671;DHT22;29267;50.906;7.248;2022-10-16T10:59:11;19.80;99.90
43671;DHT22;29267;50.906;7.248;2022-10-16T11:01:56;19.80;99.90
43671;DHT22;29267;50.906;7.248;2022-10-16T11:07:05;19.80;99.90
43671;DHT22;29267;50.906;7.248;2022-10-16T11:09:34;19.90;99.90
43671;DHT22;29267;50.906;7.248;2022-10-16T11:12:29;20.00;99.90
43671;DHT22;29267;50.906;7.248;2022-10-16T11:15:25;20.20;99.90
43671;DHT22;29267;50.906;7.248;2022-10-16T11:18:19;20.20;99.90
43671;DHT22;29267;50.906;7.248;2022-10-16T11:20:52;20.20;99.90
43671;DHT22;29267;50.906;7.248;2022-10-16T11:26:09;20.20;99.90
43671;DHT22;29267;50.906;7.248;2022-10-16T11:28:40;20.20;99.90
43671;DHT22;29267;50.906;7.248;2022-10-16T11:31:19;20.30;99.90
43671;DHT22;29267;50.906;7.248;2022-10-16T11:33:58;20.30;99.90
43671;DHT22;29267;50.906;7.248;2022-10-16T11:36:45;20.30;99.90
43671;DHT22;29267;50.906;7.248;2022-10-16T11:41:51;19.80;99.90
43671;DHT22;29267;50.906;7.248;2022-10-16T11:47:36;19.50;99.90
43671;DHT22;29267;50.906;7.248;2022-10-16T11:49:37;19.60;99.90
43671;DHT22;29267;50.906;7.248;2022-10-16T11:52:11;19.50;99.90
43671;DHT22;29267;50.906;7.248;2022-10-16T11:54:52;19.40;99.90
43671;DHT22;29267;50.906;7.248;2022-10-16T11:57:42;19.30;99.90
43671;DHT22;29267;50.906;7.248;2022-10-16T12:00:21;19.20;99.90
43671;DHT22;29267;50.906;7.248;2022-10-16T12:05:51;19.20;99.90
43671;DHT22;29267;50.906;7.248;2022-10-16T12:08:18;19.00;99.90
43671;DHT22;29267;50.906;7.248;2022-10-16T12:10:46;19.00;99.90
43671;DHT22;29267;50.906;7.248;2022-10-16T12:13:33;19.20;99.90
43671;DHT22;29267;50.906;7.248;2022-10-16T12:18:37;19.50;99.90
43671;DHT22;29267;50.906;7.248;2022-10-16T12:21:02;19.60;99.90
43671;DHT22;29267;50.906;7.248;2022-10-16T12:23:37;19.70;99.90
43671;DHT22;29267;50.906;7.248;2022-10-16T12:26:04;19.70;99.90
43671;DHT22;29267;50.906;7.248;2022-10-16T12:28:31;19.80;99.90
43671;DHT22;29267;50.906;7.248;2022-10-16T12:31:06;19.90;99.90
43671;DHT22;29267;50.906;7.248;2022-10-16T12:33:34;20.00;99.90
43671;DHT22;29267;50.906;7.248;2022-10-16T12:36:03;20.00;99.90
43671;DHT22;29267;50.906;7.248;2022-10-16T12:41:08;20.40;99.70
43671;DHT22;29267;50.906;7.248;2022-10-16T12:43:46;20.50;99.90
43671;DHT22;29267;50.906;7.248;2022-10-16T12:48:42;20.70;98.90
43671;DHT22;29267;50.906;7.248;2022-10-16T12:59:43;20.40;99.60
43671;DHT22;29267;50.906;7.248;2022-10-16T13:18:25;20.30;99.90
43671;DHT22;29267;50.906;7.248;2022-10-16T13:26:55;20.50;99.70
43671;DHT22;29267;50.906;7.248;2022-10-16T13:29:22;20.40;99.90
43671;DHT22;29267;50.906;7.248;2022-10-16T13:31:48;20.40;99.90
43671;DHT22;29267;50.906;7.248;2022-10-16T13:34:17;20.30;99.90
43671;DHT22;29267;50.906;7.248;2022-10-16T13:36:46;20.30;99.90
43671;DHT22;29267;50.906;7.248;2022-10-16T13:39:24;20.00;99.90
43671;DHT22;29267;50.906;7.248;2022-10-16T13:44:46;19.90;99.90
43671;DHT22;29267;50.906;7.248;2022-10-16T13:47:18;19.80;99.90
43671;DHT22;29267;50.906;7.248;2022-10-16T13:49:44;19.70;99.90
43671;DHT22;29267;50.906;7.248;2022-10-16T13:52:20;19.70;99.90
43671;DHT22;29267;50.906;7.248;2022-10-16T13:54:46;19.60;99.90
43671;DHT22;29267;50.906;7.248;2022-10-16T13:57:14;19.60;99.90
43671;DHT22;29267;50.906;7.248;2022-10-16T13:59:40;19.60;99.90
43671;DHT22;29267;50.906;7.248;2022-10-16T14:02:26;19.70;99.90
43671;DHT22;29267;50.906;7.248;2022-10-16T14:04:53;19.70;99.90
43671;DHT22;29267;50.906;7.248;2022-10-16T14:07:30;19.60;99.90
43671;DHT22;29267;50.906;7.248;2022-10-16T14:10:03;19.60;99.90
43671;DHT22;29267;50.906;7.248;2022-10-16T14:12:29;19.50;99.90
43671;DHT22;29267;50.906;7.248;2022-10-16T14:14:55;19.40;99.90
43671;DHT22;29267;50.906;7.248;2022-10-16T14:17:25;19.30;99.90
43671;DHT22;29267;50.906;7.248;2022-10-16T14:19:55;19.30;99.90
43671;DHT22;29267;50.906;7.248;2022-10-16T14:22:34;19.20;99.90
43671;DHT22;29267;50.906;7.248;2022-10-16T14:25:02;19.20;99.90
43671;DHT22;29267;50.906;7.248;2022-10-16T14:27:34;19.10;99.90
43671;DHT22;29267;50.906;7.248;2022-10-16T14:32:51;19.10;99.90
43671;DHT22;29267;50.906;7.248;2022-10-16T14:35:32;19.10;99.90
43671;DHT22;29267;50.906;7.248;2022-10-16T14:37:59;19.10;99.90
43671;DHT22;29267;50.906;7.248;2022-10-16T14:40:37;19.10;99.90
43671;DHT22;29267;50.906;7.248;2022-10-16T14:43:04;19.00;99.90
43671;DHT22;29267;50.906;7.248;2022-10-16T14:45:32;18.90;99.90
43671;DHT22;29267;50.906;7.248;2022-10-16T14:48:01;18.90;99.90
43671;DHT22;29267;50.906;7.248;2022-10-16T14:50:28;18.90;99.90
43671;DHT22;29267;50.906;7.248;2022-10-16T14:52:54;18.90;99.90
43671;DHT22;29267;50.906;7.248;2022-10-16T14:55:20;18.90;99.90
43671;DHT22;29267;50.906;7.248;2022-10-16T14:57:46;18.90;99.90
43671;DHT22;29267;50.906;7.248;2022-10-16T15:00:19;18.80;99.90
43671;DHT22;29267;50.906;7.248;2022-10-16T15:02:46;18.80;99.90
43671;DHT22;29267;50.906;7.248;2022-10-16T15:05:19;18.70;99.90
43671;DHT22;29267;50.906;7.248;2022-10-16T15:07:46;18.60;99.90
43671;DHT22;29267;50.906;7.248;2022-10-16T15:10:13;18.60;99.90
43671;DHT22;29267;50.906;7.248;2022-10-16T15:12:38;18.50;99.90
43671;DHT22;29267;50.906;7.248;2022-10-16T15:17:57;18.60;99.90
43671;DHT22;29267;50.906;7.248;2022-10-16T15:20:31;18.60;99.90
43671;DHT22;29267;50.906;7.248;2022-10-16T15:23:00;18.60;99.90
43671;DHT22;29267;50.906;7.248;2022-10-16T15:27:58;18.50;99.90
43671;DHT22;29267;50.906;7.248;2022-10-16T15:30:24;18.40;99.90
43671;DHT22;29267;50.906;7.248;2022-10-16T15:32:49;18.30;99.90
43671;DHT22;29267;50.906;7.248;2022-10-16T15:35:15;18.30;99.90
43671;DHT22;29267;50.906;7.248;2022-10-16T15:37:41;18.10;99.90
43671;DHT22;29267;50.906;7.248;2022-10-16T15:40:08;18.00;99.90
43671;DHT22;29267;50.906;7.248;2022-10-16T15:42:33;17.90;99.90
43671;DHT22;29267;50.906;7.248;2022-10-16T15:44:59;17.90;99.90
43671;DHT22;29267;50.906;7.248;2022-10-16T15:47:24;17.80;99.90
43671;DHT22;29267;50.906;7.248;2022-10-16T15:49:50;17.70;99.90
43671;DHT22;29267;50.906;7.248;2022-10-16T15:52:15;17.70;99.90
43671;DHT22;29267;50.906;7.248;2022-10-16T15:54:42;17.60;99.90
43671;DHT22;29267;50.906;7.248;2022-10-16T15:57:08;17.50;99.90
43671;DHT22;29267;50.906;7.248;2022-10-16T15:59:33;17.50;99.90
43671;DHT22;29267;50.906;7.248;2022-10-16T16:01:59;17.50;99.90
43671;DHT22;29267;50.906;7.248;2022-10-16T16:04:24;17.50;99.90
43671;DHT22;29267;50.906;7.248;2022-10-16T16:06:50;17.40;99.90
43671;DHT22;29267;50.906;7.248;2022-10-16T16:09:15;17.40;99.90
43671;DHT22;29267;50.906;7.248;2022-10-16T16:11:41;17.30;99.90
43671;DHT22;29267;50.906;7.248;2022-10-16T16:14:10;17.30;99.90
43671;DHT22;29267;50.906;7.248;2022-10-16T16:16:36;17.20;99.90
43671;DHT22;29267;50.906;7.248;2022-10-16T16:19:06;17.20;99.90
43671;DHT22;29267;50.906;7.248;2022-10-16T16:21:33;17.10;99.90
43671;DHT22;29267;50.906;7.248;2022-10-16T16:23:59;17.10;99.90
43671;DHT22;29267;50.906;7.248;2022-10-16T16:26:29;17.00;99.90
43671;DHT22;29267;50.906;7.248;2022-10-16T16:28:59;17.00;99.90
43671;DHT22;29267;50.906;7.248;2022-10-16T16:31:29;16.90;99.90
43671;DHT22;29267;50.906;7.248;2022-10-16T16:33:56;16.90;99.90
43671;DHT22;29267;50.906;7.248;2022-10-16T16:36:22;16.90;99.90
43671;DHT22;29267;50.906;7.248;2022-10-16T16:38:48;16.80;99.90
43671;DHT22;29267;50.906;7.248;2022-10-16T16:41:22;16.80;99.90
43671;DHT22;29267;50.906;7.248;2022-10-16T16:43:48;16.80;99.90
43671;DHT22;29267;50.906;7.248;2022-10-16T16:46:14;16.80;99.90
43671;DHT22;29267;50.906;7.248;2022-10-16T16:48:41;16.70;99.90
43671;DHT22;29267;50.906;7.248;2022-10-16T16:51:09;16.70;99.90
43671;DHT22;29267;50.906;7.248;2022-10-16T16:53:37;16.70;99.90
43671;DHT22;29267;50.906;7.248;2022-10-16T16:56:03;16.70;99.90
43671;DHT22;29267;50.906;7.248;2022-10-16T16:58:29;16.60;99.90
43671;DHT22;29267;50.906;7.248;2022-10-16T17:00:55;16.60;99.90
43671;DHT22;29267;50.906;7.248;2022-10-16T17:03:21;16.50;99.90
43671;DHT22;29267;50.906;7.248;2022-10-16T17:06:16;16.50;99.90
43671;DHT22;29267;50.906;7.248;2022-10-16T17:08:42;16.50;99.90
43671;DHT22;29267;50.906;7.248;2022-10-16T17:11:13;16.40;99.90
43671;DHT22;29267;50.906;7.248;2022-10-16T17:13:39;16.40;99.90
43671;DHT22;29267;50.906;7.248;2022-10-16T17:16:06;16.50;99.90
43671;DHT22;29267;50.906;7.248;2022-10-16T17:18:32;16.40;99.90
43671;DHT22;29267;50.906;7.248;2022-10-16T17:21:06;16.50;99.90
43671;DHT22;29267;50.906;7.248;2022-10-16T17:23:33;16.50;99.90
43671;DHT22;29267;50.906;7.248;2022-10-16T17:26:10;16.50;99.90
43671;DHT22;29267;50.906;7.248;2022-10-16T17:28:37;16.50;99.90
43671;DHT22;29267;50.906;7.248;2022-10-16T17:31:10;16.50;99.90
43671;DHT22;29267;50.906;7.248;2022-10-16T17:33:36;16.50;99.90
43671;DHT22;29267;50.906;7.248;2022-10-16T17:36:02;16.50;99.90
43671;DHT22;29267;50.906;7.248;2022-10-16T17:38:28;16.50;99.90
43671;DHT22;29267;50.906;7.248;2022-10-16T17:40:54;16.50;99.90
43671;DHT22;29267;50.906;7.248;2022-10-16T17:43:19;16.50;99.90